Time,TemperatureF,DewpointF,PressureIn,WindDirection,WindDirectionDegrees,WindSpeedMPH,WindSpeedGustMPH,Humidity,HourlyPrecipIn,Conditions,Clouds,dailyrainin,SolarRadiationWatts/m^2,SoftwareType,DateUTC
2013-10-18 00:05:00,44.0,44.0,-100.00,WSW,255,0.0,2.0,99,0.00,,,0.13,0.000000,,2013-10-18 04:05:00,
2013-10-18 00:44:00,44.0,44.0,-100.00,West,259,0.0,4.0,99,0.00,,,0.13,0.000000,,2013-10-18 04:44:00,
2013-10-18 00:53:00,44.0,44.0,-100.00,West,259,0.0,4.0,99,0.00,,,0.13,0.000000,,2013-10-18 04:53:00,
2013-10-18 01:03:00,44.0,44.0,-100.00,West,259,0.0,4.0,99,0.00,,,0.13,0.000000,,2013-10-18 05:03:00,
2013-10-18 01:43:00,43.0,43.0,-100.00,West,259,0.0,4.0,99,0.00,,,0.13,0.000000,,2013-10-18 05:43:00,
2013-10-18 01:52:00,43.0,43.0,-100.00,West,259,0.0,4.0,99,0.00,,,0.13,0.000000,,2013-10-18 05:52:00,
2013-10-18 02:02:00,43.0,43.0,-100.00,West,259,0.0,4.0,99,0.00,,,0.13,0.000000,,2013-10-18 06:02:00,
2013-10-18 03:42:00,43.0,43.0,-100.00,NW,318,0.0,3.0,99,-99.99,,,0.13,0.000000,,2013-10-18 07:42:00,
2013-10-18 03:52:00,43.0,43.0,-100.00,NW,318,0.0,3.0,99,-99.99,,,0.13,0.000000,,2013-10-18 07:52:00,
2013-10-18 04:02:00,43.0,43.0,-100.00,NW,318,0.0,3.0,99,-99.99,,,0.13,0.000000,,2013-10-18 08:02:00,
2013-10-18 04:42:00,43.0,43.0,-100.00,WSW,243,0.0,5.0,99,0.00,,,0.13,0.000000,,2013-10-18 08:42:00,
2013-10-18 04:52:00,43.0,43.0,-100.00,WSW,243,0.0,5.0,99,0.00,,,0.13,0.000000,,2013-10-18 08:52:00,
2013-10-18 05:02:00,43.0,43.0,-100.00,WSW,243,0.0,5.0,99,0.00,,,0.13,0.000000,,2013-10-18 09:02:00,
2013-10-18 05:43:00,43.0,43.0,-100.00,SW,226,0.0,5.0,99,0.00,,,0.13,0.000000,,2013-10-18 09:43:00,
2013-10-18 05:53:00,43.0,43.0,-100.00,SW,226,0.0,5.0,99,0.00,,,0.13,0.000000,,2013-10-18 09:53:00,
2013-10-18 06:03:00,43.0,43.0,-100.00,SW,226,0.0,5.0,99,0.00,,,0.13,0.000000,,2013-10-18 10:03:00,
2013-10-18 06:43:00,43.0,43.0,-100.00,WSW,249,1.0,5.0,99,0.01,,,0.14,0.000000,,2013-10-18 10:43:00,
2013-10-18 06:53:00,43.0,43.0,-100.00,WSW,249,1.0,5.0,99,0.01,,,0.14,0.000000,,2013-10-18 10:53:00,
2013-10-18 07:03:00,43.0,43.0,-100.00,WSW,249,1.0,5.0,99,0.01,,,0.14,0.000000,,2013-10-18 11:03:00,
2013-10-18 07:42:00,44.0,44.0,-100.00,WSW,250,1.0,6.0,99,0.00,,,0.14,0.000000,,2013-10-18 11:42:00,
2013-10-18 07:52:00,44.0,44.0,-100.00,WSW,250,1.0,6.0,99,0.00,,,0.14,0.000000,,2013-10-18 11:52:00,
2013-10-18 08:02:00,44.0,44.0,-100.00,WSW,250,1.0,6.0,99,0.00,,,0.14,0.000000,,2013-10-18 12:02:00,
2013-10-18 08:42:00,44.0,43.0,-100.00,West,263,2.0,6.0,98,0.00,,,-99.99,2.000000,,2013-10-18 12:42:00,
2013-10-18 08:52:00,44.0,43.0,-100.00,West,263,2.0,6.0,98,0.00,,,-99.99,2.000000,,2013-10-18 12:52:00,
2013-10-18 09:01:00,44.0,43.0,-100.00,West,263,2.0,6.0,98,0.00,,,-99.99,2.000000,,2013-10-18 13:01:00,
2013-10-18 09:52:00,48.0,46.0,-100.00,WSW,254,2.0,6.0,94,0.00,,,0.12,66.000000,,2013-10-18 13:52:00,
2013-10-18 10:02:00,48.0,46.0,-100.00,WSW,254,2.0,6.0,94,0.00,,,0.12,66.000000,,2013-10-18 14:02:00,
2013-10-18 10:52:00,53.0,49.0,-100.00,West,265,2.0,7.0,85,0.00,,,0.01,252.000000,,2013-10-18 14:52:00,
2013-10-18 11:02:00,53.0,49.0,-100.00,West,265,2.0,7.0,85,0.00,,,0.01,252.000000,,2013-10-18 15:02:00,
2013-10-18 11:54:00,59.0,51.0,-100.00,WSW,253,2.0,8.0,75,0.00,,,0.01,429.000000,,2013-10-18 15:54:00,
2013-10-18 12:04:00,59.0,51.0,-100.00,WSW,253,2.0,8.0,75,0.00,,,0.01,429.000000,,2013-10-18 16:04:00,
2013-10-18 12:42:00,63.0,50.0,-100.00,West,260,3.0,11.0,62,0.00,,,0.01,558.000000,,2013-10-18 16:42:00,
2013-10-18 12:53:00,63.0,50.0,-100.00,West,260,3.0,11.0,62,0.00,,,0.01,558.000000,,2013-10-18 16:53:00,
2013-10-18 13:03:00,63.0,50.0,-100.00,West,260,3.0,11.0,62,0.00,,,0.01,558.000000,,2013-10-18 17:03:00,
2013-10-18 13:42:00,65.0,44.0,-100.00,WSW,241,2.0,13.0,47,0.00,,,0.01,612.000000,,2013-10-18 17:42:00,
2013-10-18 13:52:00,65.0,44.0,-100.00,WSW,241,2.0,13.0,47,0.00,,,0.01,612.000000,,2013-10-18 17:52:00,
2013-10-18 14:02:00,65.0,44.0,-100.00,WSW,241,2.0,13.0,47,0.00,,,0.01,612.000000,,2013-10-18 18:02:00,
2013-10-18 14:42:00,67.0,43.0,-100.00,WSW,254,3.0,13.0,42,0.00,,,0.01,643.000000,,2013-10-18 18:42:00,
2013-10-18 14:52:00,67.0,43.0,-100.00,WSW,254,3.0,13.0,42,0.00,,,0.01,643.000000,,2013-10-18 18:52:00,
2013-10-18 15:01:00,67.0,43.0,-100.00,WSW,254,3.0,13.0,42,0.00,,,0.01,643.000000,,2013-10-18 19:01:00,
2013-10-18 15:42:00,68.0,45.0,-100.00,West,269,2.0,10.0,43,0.00,,,0.01,570.000000,,2013-10-18 19:42:00,
2013-10-18 15:52:00,68.0,45.0,-100.00,West,269,2.0,10.0,43,0.00,,,0.01,570.000000,,2013-10-18 19:52:00,
2013-10-18 16:02:00,68.0,45.0,-100.00,West,269,2.0,10.0,43,0.00,,,0.01,570.000000,,2013-10-18 20:02:00,
2013-10-18 16:42:00,68.0,43.0,-100.00,NW,311,2.0,10.0,41,0.00,,,0.01,487.000000,,2013-10-18 20:42:00,
2013-10-18 16:52:00,68.0,43.0,-100.00,NW,311,2.0,10.0,41,0.00,,,0.01,487.000000,,2013-10-18 20:52:00,
2013-10-18 17:02:00,68.0,43.0,-100.00,NW,311,2.0,10.0,41,0.00,,,0.01,487.000000,,2013-10-18 21:02:00,
2013-10-18 17:45:00,67.0,45.0,-100.00,West,268,1.0,7.0,45,0.00,,,0.01,286.000000,,2013-10-18 21:45:00,
2013-10-18 17:54:00,67.0,45.0,-100.00,West,268,1.0,7.0,45,0.00,,,0.01,286.000000,,2013-10-18 21:54:00,
2013-10-18 18:04:00,67.0,45.0,-100.00,West,268,1.0,7.0,45,0.00,,,0.01,286.000000,,2013-10-18 22:04:00,
2013-10-18 18:43:00,64.0,47.0,-100.00,West,270,1.0,7.0,53,0.00,,,0.01,168.000000,,2013-10-18 22:43:00,
2013-10-18 18:54:00,64.0,47.0,-100.00,West,270,1.0,7.0,53,0.00,,,0.01,168.000000,,2013-10-18 22:54:00,
2013-10-18 19:03:00,64.0,47.0,-100.00,West,270,1.0,7.0,53,0.00,,,0.01,168.000000,,2013-10-18 23:03:00,
2013-10-18 19:43:00,55.0,45.0,-100.00,SSW,201,0.0,6.0,70,0.00,,,0.01,25.000000,,2013-10-18 23:43:00,
2013-10-18 19:53:00,55.0,45.0,-100.00,SSW,201,0.0,6.0,70,0.00,,,0.01,25.000000,,2013-10-18 23:53:00,
2013-10-18 20:02:00,55.0,45.0,-100.00,SSW,201,0.0,6.0,70,0.00,,,0.01,25.000000,,2013-10-19 00:02:00,
2013-10-18 20:42:00,52.0,45.0,-100.00,SE,132,0.0,0.0,77,0.00,,,0.01,0.000000,,2013-10-19 00:42:00,
2013-10-18 20:52:00,52.0,45.0,-100.00,SE,132,0.0,0.0,77,0.00,,,0.01,0.000000,,2013-10-19 00:52:00,
2013-10-18 21:02:00,52.0,45.0,-100.00,SE,132,0.0,0.0,77,0.00,,,0.01,0.000000,,2013-10-19 01:02:00,
2013-10-18 21:42:00,52.0,45.0,-100.00,SSW,202,0.0,1.0,78,0.00,,,0.01,0.000000,,2013-10-19 01:42:00,
2013-10-18 21:53:00,52.0,45.0,-100.00,SSW,202,0.0,1.0,78,0.00,,,0.01,0.000000,,2013-10-19 01:53:00,
2013-10-18 22:02:00,52.0,45.0,-100.00,SSW,202,0.0,1.0,78,0.00,,,0.01,0.000000,,2013-10-19 02:02:00,
2013-10-18 22:42:00,52.0,45.0,-100.00,SSE,156,0.0,3.0,78,0.00,,,0.01,0.000000,,2013-10-19 02:42:00,
2013-10-18 22:52:00,52.0,45.0,-100.00,SSE,156,0.0,3.0,78,0.00,,,0.01,0.000000,,2013-10-19 02:52:00,
2013-10-18 23:03:00,52.0,45.0,-100.00,SSE,156,0.0,3.0,78,0.00,,,0.01,0.000000,,2013-10-19 03:03:00,
2013-10-18 23:45:00,52.0,45.0,-100.00,WNW,285,1.0,8.0,78,0.00,,,0.01,0.000000,,2013-10-19 03:45:00,
2013-10-18 23:55:00,52.0,45.0,-100.00,WNW,285,1.0,8.0,78,0.00,,,0.01,0.000000,,2013-10-19 03:55:00,